createdAt,value
2018-11-23T00:00:39.971Z,7.9
2018-11-23T00:01:41.521Z,7.9
2018-11-23T00:02:42.933Z,7.9
2018-11-23T00:03:44.479Z,7.9
2018-11-23T00:04:46.019Z,7.9
2018-11-23T00:05:47.261Z,7.9
2018-11-23T00:06:48.793Z,7.9
2018-11-23T00:07:50.183Z,7.9
2018-11-23T00:08:51.728Z,7.9
2018-11-23T00:09:52.839Z,7.9
2018-11-23T00:10:54.220Z,7.9
2018-11-23T00:11:55.752Z,7.9
2018-11-23T00:12:57.345Z,7.9
2018-11-23T00:13:58.733Z,7.9
2018-11-23T00:15:00.473Z,7.9
2018-11-23T00:16:02.049Z,7.9
2018-11-23T00:17:03.433Z,7.9
2018-11-23T00:18:04.689Z,7.8
2018-11-23T00:19:06.067Z,7.9
2018-11-23T00:20:07.619Z,7.9
2018-11-23T00:21:09.009Z,7.9
2018-11-23T00:22:10.547Z,7.9
2018-11-23T00:23:11.622Z,7.9
2018-11-23T00:24:13.169Z,7.2
2018-11-23T00:25:14.400Z,7.3
2018-11-23T00:26:15.637Z,7.3
2018-11-23T00:27:16.843Z,7.4
2018-11-23T00:28:18.267Z,7.4
2018-11-23T00:29:19.658Z,7.4
2018-11-23T00:30:20.883Z,7.4
2018-11-23T00:31:22.271Z,7.5
2018-11-23T00:32:23.819Z,7.5
2018-11-23T00:33:25.199Z,7.6
2018-11-23T00:34:26.447Z,7.6
2018-11-23T00:35:27.845Z,7.7
2018-11-23T00:36:29.232Z,7.7
2018-11-23T00:37:30.887Z,7.7
2018-11-23T00:38:32.289Z,7.7
2018-11-23T00:39:33.359Z,7.7
2018-11-23T00:40:34.598Z,7.8
2018-11-23T00:41:36.145Z,7.8
2018-11-23T00:42:37.377Z,7.8
2018-11-23T00:43:38.780Z,7.8
2018-11-23T00:44:40.307Z,7.9
2018-11-23T00:45:44.619Z,7.2
2018-11-23T00:46:45.871Z,7.3
2018-11-23T00:47:47.441Z,7.4
2018-11-23T00:48:48.829Z,7.4
2018-11-23T00:49:50.409Z,7.4
2018-11-23T00:50:51.954Z,7.5
2018-11-23T00:51:53.054Z,7.5
2018-11-23T00:52:54.294Z,7.5
2018-11-23T00:53:55.718Z,7.5
2018-11-23T00:54:56.781Z,7.5
2018-11-23T00:55:58.200Z,7.6
2018-11-23T00:56:59.419Z,7.6
2018-11-23T00:58:00.959Z,7.7
2018-11-23T00:59:02.349Z,7.7
2018-11-23T01:00:03.436Z,7.7
2018-11-23T01:01:05.000Z,7.7
2018-11-23T01:02:06.240Z,7.8
2018-11-23T01:03:07.461Z,7.8
2018-11-23T01:04:09.001Z,7.8
2018-11-23T01:05:09.773Z,7.8
2018-11-23T01:06:10.994Z,7.8
2018-11-23T01:07:12.369Z,7.8
2018-11-23T01:08:13.609Z,7.8
2018-11-23T01:09:15.151Z,7.8
2018-11-23T01:10:16.395Z,7.9
2018-11-23T01:11:17.770Z,7.9
2018-11-23T01:12:19.322Z,7.9
2018-11-23T01:13:20.582Z,7.9
2018-11-23T01:14:22.140Z,7.9
2018-11-23T01:15:23.387Z,7.8
2018-11-23T01:16:24.922Z,7.8
2018-11-23T01:17:26.479Z,7.8
2018-11-23T01:18:27.549Z,7.9
2018-11-23T01:19:28.964Z,7.9
2018-11-23T01:20:30.382Z,7.9
2018-11-23T01:21:31.769Z,7.9
2018-11-23T01:22:32.982Z,7.9
2018-11-23T01:23:34.545Z,7.9
2018-11-23T01:24:36.090Z,7.8
2018-11-23T01:25:37.483Z,7.8
2018-11-23T01:26:38.870Z,7.8
2018-11-23T01:27:40.119Z,7.8
2018-11-23T01:28:41.497Z,7.8
2018-11-23T01:29:42.885Z,7.8
2018-11-23T01:30:44.122Z,7.8
2018-11-23T01:31:45.199Z,7.8
2018-11-23T01:32:46.597Z,7.8
2018-11-23T01:33:47.989Z,7.8
2018-11-23T01:34:49.531Z,7.8
2018-11-23T01:35:50.926Z,7.8
2018-11-23T01:36:52.338Z,7.8
2018-11-23T01:37:53.892Z,7.8
2018-11-23T01:38:55.125Z,7.8
2018-11-23T01:39:56.657Z,7.8
2018-11-23T01:40:58.221Z,7.8
2018-11-23T01:41:59.617Z,7.2
2018-11-23T01:43:01.181Z,7.2
2018-11-23T01:44:02.581Z,7.3
2018-11-23T01:45:04.009Z,7.3
2018-11-23T01:46:05.098Z,7.3
2018-11-23T01:47:06.647Z,7.4
2018-11-23T01:48:08.029Z,7.4
2018-11-23T01:49:09.096Z,7.4
2018-11-23T01:50:10.477Z,7.4
2018-11-23T01:51:11.710Z,7.5
2018-11-23T01:52:13.241Z,7.5
2018-11-23T01:53:14.472Z,7.6
2018-11-23T01:54:15.857Z,7.6
2018-11-23T01:55:17.099Z,7.7
2018-11-23T01:56:18.657Z,7.7
2018-11-23T01:57:19.879Z,7.7
2018-11-23T01:58:21.429Z,7.7
2018-11-23T01:59:22.839Z,7.8
2018-11-23T02:00:24.229Z,7.8
2018-11-23T02:01:25.768Z,7.7
2018-11-23T02:02:27.358Z,7.7
2018-11-23T02:03:28.579Z,7.7
2018-11-23T02:04:29.830Z,7.7
2018-11-23T02:05:31.049Z,7.7
2018-11-23T02:06:32.454Z,7.6
2018-11-23T02:07:33.520Z,7.5
2018-11-23T02:08:34.918Z,7.5
2018-11-23T02:09:36.468Z,7.4
2018-11-23T02:10:37.711Z,7.2
2018-11-23T02:11:39.359Z,7.1
2018-11-23T02:12:40.774Z,7.1
2018-11-23T02:13:42.020Z,7.1
2018-11-23T02:14:43.407Z,7.1
2018-11-23T02:15:44.639Z,7.2
2018-11-23T02:16:46.182Z,7.1
2018-11-23T02:17:47.741Z,7.1
2018-11-23T02:18:49.268Z,7.2
2018-11-23T02:19:50.658Z,7.1
2018-11-23T02:20:52.185Z,7.1
2018-11-23T02:21:53.415Z,7.1
2018-11-23T02:22:54.973Z,7.1
2018-11-23T02:23:56.202Z,7.1
2018-11-23T02:24:57.593Z,7.1
2018-11-23T02:25:58.971Z,7.1
2018-11-23T02:27:00.396Z,7.1
2018-11-23T02:28:01.788Z,7.1
2018-11-23T02:29:03.339Z,7.1
2018-11-23T02:30:04.760Z,7.1
2018-11-23T02:31:06.167Z,7.1
2018-11-23T02:32:07.539Z,7.1
2018-11-23T02:33:08.797Z,7.1
2018-11-23T02:34:09.711Z,7.1
2018-11-23T02:35:11.100Z,7.1
2018-11-23T02:36:12.526Z,7.1
2018-11-23T02:37:14.071Z,7.1
2018-11-23T02:38:15.014Z,7.1
2018-11-23T02:39:16.407Z,7.1
2018-11-23T02:40:17.328Z,7.1
2018-11-23T02:41:18.729Z,7.1
2018-11-23T02:42:20.290Z,7.2
2018-11-23T02:43:21.685Z,7.1
2018-11-23T02:44:23.240Z,7.2
2018-11-23T02:45:24.630Z,7.2
2018-11-23T02:46:25.888Z,7.2
2018-11-23T02:47:26.796Z,7.2
2018-11-23T02:48:28.359Z,7.2
2018-11-23T02:49:29.747Z,7.2
2018-11-23T02:50:31.124Z,7.2
2018-11-23T02:51:32.210Z,7.2
2018-11-23T02:52:33.610Z,7.2
2018-11-23T02:53:35.170Z,7.2
2018-11-23T02:54:36.728Z,7.2
2018-11-23T02:55:38.121Z,7.2
2018-11-23T02:56:39.510Z,7.2
2018-11-23T02:57:40.646Z,7.2
2018-11-23T02:58:41.580Z,7.2
2018-11-23T02:59:43.119Z,7.2
2018-11-23T03:00:44.646Z,7.2
2018-11-23T03:01:46.210Z,7.2
2018-11-23T03:02:47.626Z,7.3
2018-11-23T03:03:49.030Z,7.3
2018-11-23T03:04:50.282Z,7.3
2018-11-23T03:05:51.878Z,7.4
2018-11-23T03:06:53.430Z,7.4
2018-11-23T03:07:54.960Z,7.5
2018-11-23T03:08:56.506Z,7.5
2018-11-23T03:09:57.892Z,7.5
2018-11-23T03:10:59.290Z,7.6
2018-11-23T03:12:00.843Z,7.6
2018-11-23T03:13:02.426Z,7.6
2018-11-23T03:14:03.957Z,7.7
2018-11-23T03:15:05.187Z,7.7
2018-11-23T03:16:06.570Z,7.7
2018-11-23T03:17:08.120Z,7.8
2018-11-23T03:18:09.341Z,7.8
2018-11-23T03:19:10.730Z,7.8
2018-11-23T03:20:12.289Z,7.9
2018-11-23T03:21:13.369Z,7.9
2018-11-23T03:22:14.929Z,7.9
2018-11-23T03:23:16.310Z,7.9
2018-11-23T03:24:17.863Z,7.9
2018-11-23T03:25:19.272Z,7.9
2018-11-23T03:26:20.810Z,7.9
2018-11-23T03:27:22.201Z,7.9
2018-11-23T03:28:23.570Z,7.9
2018-11-23T03:29:24.807Z,7.9
2018-11-23T03:30:26.209Z,7.9
2018-11-23T03:31:27.827Z,7.9
2018-11-23T03:32:29.388Z,7.9
2018-11-23T03:33:30.627Z,7.9
2018-11-23T03:34:31.880Z,7.9
2018-11-23T03:35:33.427Z,7.9
2018-11-23T03:36:34.660Z,7.9
2018-11-23T03:37:35.896Z,7.9
2018-11-23T03:38:37.121Z,7.9
2018-11-23T03:39:38.525Z,7.9
2018-11-23T03:40:39.920Z,7.8
2018-11-23T03:41:41.132Z,7.8
2018-11-23T03:42:42.525Z,7.8
2018-11-23T03:43:43.767Z,7.8
2018-11-23T03:44:45.173Z,7.8
2018-11-23T03:45:46.556Z,7.8
2018-11-23T03:46:47.967Z,7.8
2018-11-23T03:47:49.524Z,7.8
2018-11-23T03:48:50.735Z,7.7
2018-11-23T03:49:52.137Z,7.7
2018-11-23T03:50:53.546Z,7.7
2018-11-23T03:51:55.101Z,7.7
2018-11-23T03:52:56.641Z,7.7
2018-11-23T03:53:58.169Z,7.7
2018-11-23T03:54:59.557Z,7.6
2018-11-23T03:56:00.810Z,7.6
2018-11-23T03:57:02.248Z,7.6
2018-11-23T03:58:03.641Z,7.6
2018-11-23T03:59:05.032Z,7.7
2018-11-23T04:00:06.571Z,7.7
2018-11-23T04:01:08.112Z,7.7
2018-11-23T04:02:09.663Z,7.8
2018-11-23T04:03:10.893Z,7.8
2018-11-23T04:04:12.286Z,7.8
2018-11-23T04:05:13.579Z,7.8
2018-11-23T04:06:14.660Z,7.8
2018-11-23T04:07:16.044Z,7.8
2018-11-23T04:08:17.431Z,7.8
2018-11-23T04:09:18.970Z,7.8
2018-11-23T04:10:20.529Z,7.7
2018-11-23T04:11:22.085Z,7.7
2018-11-23T04:12:23.630Z,7.6
2018-11-23T04:13:25.172Z,7.4
2018-11-23T04:14:26.415Z,7.3
2018-11-23T04:15:27.641Z,7.2
2018-11-23T04:16:29.049Z,7.2
2018-11-23T04:17:30.641Z,7.2
2018-11-23T04:18:31.877Z,7.2
2018-11-23T04:19:33.451Z,7.2
2018-11-23T04:20:35.000Z,7.1
2018-11-23T04:21:36.240Z,7.1
2018-11-23T04:22:37.795Z,7.2
2018-11-23T04:23:39.355Z,7.2
2018-11-23T04:24:40.431Z,7.2
2018-11-23T04:25:41.659Z,7.2
2018-11-23T04:26:42.916Z,7.2
2018-11-23T04:27:44.314Z,7.2
2018-11-23T04:28:45.690Z,7.2
2018-11-23T04:29:46.934Z,7.2
2018-11-23T04:30:48.309Z,7.2
2018-11-23T04:31:49.701Z,7.2
2018-11-23T04:32:50.933Z,7.2
2018-11-23T04:33:52.329Z,7.2
2018-11-23T04:34:53.407Z,7.3
2018-11-23T04:35:55.007Z,7.3
2018-11-23T04:36:56.447Z,7.4
2018-11-23T04:37:57.953Z,7.5
2018-11-23T04:38:59.351Z,7.6
2018-11-23T04:40:00.937Z,7.6
2018-11-23T04:41:02.022Z,7.7
2018-11-23T04:42:03.119Z,7.8
2018-11-23T04:43:04.359Z,7.8
2018-11-23T04:44:05.745Z,7.9
2018-11-23T04:45:06.986Z,7.9
2018-11-23T04:46:08.378Z,7.9
2018-11-23T04:47:09.759Z,7.9
2018-11-23T04:48:11.309Z,7.9
2018-11-23T04:49:12.719Z,7.9
2018-11-23T04:50:13.477Z,7.9
2018-11-23T04:51:14.871Z,7.9
2018-11-23T04:52:15.927Z,7.9
2018-11-23T04:53:17.156Z,7.9
2018-11-23T04:54:18.397Z,7.9
2018-11-23T04:55:19.788Z,7.9
2018-11-23T04:56:21.165Z,7.9
2018-11-23T04:57:22.713Z,7.9
2018-11-23T04:58:24.259Z,7.9
2018-11-23T04:59:25.655Z,7.9
2018-11-23T05:00:26.873Z,7.9
2018-11-23T05:01:28.100Z,7.9
2018-11-23T05:02:29.640Z,7.9
2018-11-23T05:03:31.041Z,7.9
2018-11-23T05:04:32.424Z,7.8
2018-11-23T05:05:33.973Z,7.8
2018-11-23T05:06:35.057Z,7.8
2018-11-23T05:07:36.578Z,7.8
2018-11-23T05:08:37.671Z,7.9
2018-11-23T05:09:39.215Z,7.9
2018-11-23T05:10:40.773Z,7.9
2018-11-23T05:11:42.003Z,7.9
2018-11-23T05:12:43.389Z,7.9
2018-11-23T05:13:44.771Z,7.9
2018-11-23T05:14:46.329Z,7.9
2018-11-23T05:15:47.571Z,7.8
2018-11-23T05:16:49.108Z,7.8
2018-11-23T05:17:50.324Z,7.8
2018-11-23T05:18:51.709Z,7.8
2018-11-23T05:19:53.099Z,7.8
2018-11-23T05:20:54.478Z,7.8
2018-11-23T05:21:55.690Z,7.9
2018-11-23T05:22:57.072Z,7.8
2018-11-23T05:23:58.620Z,7.9
2018-11-23T05:25:00.169Z,7.9
2018-11-23T05:26:01.239Z,7.9
2018-11-23T05:27:02.478Z,7.9
2018-11-23T05:28:04.025Z,7.9
2018-11-23T05:29:05.581Z,7.9
2018-11-23T05:30:07.136Z,7.9
2018-11-23T05:31:08.517Z,7.2
2018-11-23T05:32:10.059Z,7.3
2018-11-23T05:33:11.273Z,7.3
2018-11-23T05:34:12.344Z,7.4
2018-11-23T05:35:13.734Z,7.4
2018-11-23T05:36:15.119Z,7.4
2018-11-23T05:37:16.368Z,7.4
2018-11-23T05:38:17.763Z,7.4
2018-11-23T05:39:19.149Z,7.4
2018-11-23T05:40:20.705Z,7.5
2018-11-23T05:41:22.084Z,7.5
2018-11-23T05:42:23.315Z,7.6
2018-11-23T05:43:24.560Z,7.6
2018-11-23T05:44:25.797Z,7.7
2018-11-23T05:45:27.345Z,7.7
2018-11-23T05:46:28.722Z,7.8
2018-11-23T05:47:30.124Z,7.8
2018-11-23T05:48:31.220Z,7.8
2018-11-23T05:49:32.609Z,7.7
2018-11-23T05:50:33.699Z,7.7
2018-11-23T05:51:34.774Z,7.7
2018-11-23T05:52:36.159Z,7.7
2018-11-23T05:53:37.552Z,7.8
2018-11-23T05:54:38.981Z,7.8
2018-11-23T05:55:40.372Z,7.9
2018-11-23T05:56:41.761Z,7.9
2018-11-23T05:57:43.162Z,7.9
2018-11-23T05:58:44.713Z,7.9
2018-11-23T05:59:46.095Z,7.8
2018-11-23T06:00:47.335Z,7.8
2018-11-23T06:01:48.921Z,7.7
2018-11-23T06:02:50.195Z,7.6
2018-11-23T06:03:51.756Z,7.4
2018-11-23T06:04:53.313Z,7.3
2018-11-23T06:05:54.709Z,7.2
2018-11-23T06:06:56.282Z,7.2
2018-11-23T06:07:57.681Z,7.2
2018-11-23T06:08:59.071Z,7.2
2018-11-23T06:10:00.320Z,7.2
2018-11-23T06:11:01.900Z,7.1
2018-11-23T06:12:02.979Z,7.1
2018-11-23T06:13:03.895Z,7.2
2018-11-23T06:14:05.142Z,7.1
2018-11-23T06:15:06.379Z,7.1
2018-11-23T06:16:07.631Z,7.2
2018-11-23T06:17:09.049Z,7.2
2018-11-23T06:18:09.979Z,7.2
2018-11-23T06:19:11.380Z,7.2
2018-11-23T06:20:12.609Z,7.2
2018-11-23T06:21:13.988Z,7.2
2018-11-23T06:22:15.375Z,7.2
2018-11-23T06:23:16.912Z,7.2
2018-11-23T06:24:17.985Z,7.3
2018-11-23T06:25:19.377Z,7.3
2018-11-23T06:26:20.306Z,7.4
2018-11-23T06:27:21.419Z,7.4
2018-11-23T06:28:22.801Z,7.4
2018-11-23T06:29:24.387Z,7.5
2018-11-23T06:30:25.951Z,7.5
2018-11-23T06:31:27.346Z,7.5
2018-11-23T06:32:28.615Z,7.5
2018-11-23T06:33:29.861Z,7.5
2018-11-23T06:34:31.259Z,7.5
2018-11-23T06:35:32.659Z,7.5
2018-11-23T06:36:34.050Z,7.5
2018-11-23T06:37:35.609Z,7.6
2018-11-23T06:38:37.159Z,7.6
2018-11-23T06:39:38.579Z,7.6
2018-11-23T06:40:40.211Z,7.7
2018-11-23T06:41:41.767Z,7.7
2018-11-23T06:42:43.783Z,7.8
2018-11-23T06:43:45.327Z,7.8
2018-11-23T06:44:46.739Z,7.8
2018-11-23T06:45:48.001Z,7.8
2018-11-23T06:46:49.393Z,7.8
2018-11-23T06:47:50.955Z,7.8
2018-11-23T06:48:52.492Z,7.8
2018-11-23T06:49:53.733Z,7.8
2018-11-23T06:50:55.119Z,7.8
2018-11-23T06:51:56.391Z,7.8
2018-11-23T06:52:57.648Z,7.8
2018-11-23T06:53:59.029Z,7.8
2018-11-23T06:55:00.419Z,7.8
2018-11-23T06:56:01.689Z,7.8
2018-11-23T06:57:02.795Z,7.8
2018-11-23T06:58:04.036Z,7.9
2018-11-23T06:59:05.608Z,7.8
2018-11-23T07:00:06.921Z,7.8
2018-11-23T07:01:08.009Z,7.8
2018-11-23T07:02:09.423Z,7.8
2018-11-23T07:03:10.970Z,7.8
2018-11-23T07:04:12.254Z,7.8
2018-11-23T07:05:13.491Z,7.7
2018-11-23T07:06:14.573Z,7.7
2018-11-23T07:07:15.813Z,7.7
2018-11-23T07:08:17.207Z,7.7
2018-11-23T07:09:18.438Z,7.7
2018-11-23T07:10:20.006Z,7.6
2018-11-23T07:11:21.560Z,7.6
2018-11-23T07:12:23.114Z,7.5
2018-11-23T07:13:24.709Z,7.5
2018-11-23T07:14:26.254Z,7.5
2018-11-23T07:15:27.789Z,7.4
2018-11-23T07:16:29.185Z,7.4
2018-11-23T07:17:30.401Z,7.4
2018-11-23T07:18:31.935Z,7.4
2018-11-23T07:19:33.354Z,7.3
2018-11-23T07:20:34.953Z,7.3
2018-11-23T07:21:36.187Z,7.3
2018-11-23T07:22:37.467Z,7.3
2018-11-23T07:23:39.010Z,7.3
2018-11-23T07:24:40.548Z,7.4
2018-11-23T07:25:41.941Z,7.4
2018-11-23T07:26:43.019Z,7.5
2018-11-23T07:27:44.588Z,7.5
2018-11-23T07:28:45.837Z,7.5
2018-11-23T07:29:47.077Z,7.4
2018-11-23T07:30:48.464Z,7.3
2018-11-23T07:31:49.566Z,7.2
2018-11-23T07:32:50.986Z,7.1
2018-11-23T07:33:52.639Z,7.1
2018-11-23T07:34:53.896Z,7.1
2018-11-23T07:35:55.108Z,7.1
2018-11-23T07:36:56.204Z,7.1
2018-11-23T07:37:57.463Z,7.1
2018-11-23T07:38:58.841Z,7.1
2018-11-23T07:40:00.228Z,7.1
2018-11-23T07:41:01.498Z,7.1
2018-11-23T07:42:02.900Z,7.1
2018-11-23T07:43:04.459Z,7.1
2018-11-23T07:44:05.682Z,7.1
2018-11-23T07:45:07.059Z,7.2
2018-11-23T07:46:08.292Z,7.1
2018-11-23T07:47:09.694Z,7.1
2018-11-23T07:48:10.915Z,7.1
2018-11-23T07:49:12.232Z,7.1
2018-11-23T07:50:13.779Z,7.1
2018-11-23T07:51:15.179Z,7.1
2018-11-23T07:52:16.421Z,7.1
2018-11-23T07:53:17.823Z,7.1
2018-11-23T07:54:19.250Z,7.1
2018-11-23T07:55:20.338Z,7.1
2018-11-23T07:56:21.582Z,7.1
2018-11-23T07:57:23.149Z,7.1
2018-11-23T07:58:24.214Z,7.1
2018-11-23T07:59:25.837Z,7.1
2018-11-23T08:00:27.408Z,7.1
2018-11-23T08:01:28.650Z,7.1
2018-11-23T08:02:30.207Z,7.2
2018-11-23T08:03:31.598Z,7.2
2018-11-23T08:04:32.686Z,7.2
2018-11-23T08:05:34.080Z,7.2
2018-11-23T08:06:35.647Z,7.2
2018-11-23T08:07:37.031Z,7.2
2018-11-23T08:08:38.258Z,7.2
2018-11-23T08:09:39.813Z,7.2
2018-11-23T08:10:41.047Z,7.2
2018-11-23T08:11:42.457Z,7.3
2018-11-23T08:12:44.003Z,7.3
2018-11-23T08:13:45.245Z,7.4
2018-11-23T08:14:46.797Z,7.5
2018-11-23T08:15:48.181Z,7.6
2018-11-23T08:16:49.729Z,7.6
2018-11-23T08:17:51.321Z,7.7
2018-11-23T08:18:52.711Z,7.8
2018-11-23T08:19:54.099Z,7.8
2018-11-23T08:20:55.519Z,7.9
2018-11-23T08:21:56.599Z,7.9
2018-11-23T08:22:58.163Z,7.9
2018-11-23T08:23:59.558Z,7.9
2018-11-23T08:25:00.944Z,7.9
2018-11-23T08:26:02.495Z,7.9
2018-11-23T08:27:03.585Z,7.8
2018-11-23T08:28:05.193Z,7.8
2018-11-23T08:29:06.586Z,7.8
2018-11-23T08:30:08.186Z,7.9
2018-11-23T08:31:09.583Z,7.9
2018-11-23T08:32:10.985Z,7.8
2018-11-23T08:33:12.219Z,7.9
2018-11-23T08:34:13.627Z,7.9
2018-11-23T08:35:14.892Z,7.9
2018-11-23T08:36:16.283Z,7.9
2018-11-23T08:37:17.849Z,7.9
2018-11-23T08:38:19.399Z,7.9
2018-11-23T08:39:20.795Z,7.8
2018-11-23T08:40:22.195Z,7.8
2018-11-23T08:41:23.589Z,7.8
2018-11-23T08:42:24.977Z,7.8
2018-11-23T08:43:26.389Z,7.8
2018-11-23T08:44:27.805Z,7.8
2018-11-23T08:45:29.028Z,7.8
2018-11-23T08:46:30.426Z,7.8
2018-11-23T08:47:31.988Z,7.8
2018-11-23T08:48:33.542Z,7.8
2018-11-23T08:49:34.783Z,7.8
2018-11-23T08:50:36.329Z,7.8
2018-11-23T08:51:37.715Z,7.4
2018-11-23T08:52:38.988Z,7.4
2018-11-23T08:53:40.409Z,7.4
2018-11-23T08:54:41.810Z,7.5
2018-11-23T08:55:43.194Z,7.5
2018-11-23T08:56:44.480Z,7.6
2018-11-23T08:57:45.873Z,7.7
2018-11-23T08:58:47.427Z,7.7
2018-11-23T08:59:48.677Z,7.8
2018-11-23T09:00:50.064Z,7.8
2018-11-23T09:01:51.299Z,7.8
2018-11-23T09:02:52.532Z,7.8
2018-11-23T09:03:53.615Z,7.8
2018-11-23T09:04:54.993Z,7.8
2018-11-23T09:05:56.401Z,7.8
2018-11-23T09:06:57.963Z,7.8
2018-11-23T09:07:59.061Z,7.8
2018-11-23T09:09:00.502Z,7.8
2018-11-23T09:10:01.744Z,7.2
2018-11-23T09:11:03.150Z,7.3
2018-11-23T09:12:04.388Z,7.4
2018-11-23T09:13:05.948Z,7.4
2018-11-23T09:14:07.335Z,7.5
2018-11-23T09:15:08.559Z,7.5
2018-11-23T09:16:09.468Z,7.5
2018-11-23T09:17:10.709Z,7.4
2018-11-23T09:18:11.949Z,7.4
2018-11-23T09:19:13.217Z,7.3
2018-11-23T09:20:14.609Z,7.3
2018-11-23T09:21:16.013Z,7.2
2018-11-23T09:22:24.845Z,7.2
2018-11-23T09:23:26.243Z,7.2
2018-11-23T09:24:27.818Z,7.2
2018-11-23T09:25:29.218Z,7.2
2018-11-23T09:26:30.607Z,7.1
2018-11-23T09:27:31.997Z,7.2
2018-11-23T09:28:33.247Z,7.2
2018-11-23T09:29:34.636Z,7.1
2018-11-23T09:30:36.029Z,7.2
2018-11-23T09:31:37.574Z,7.2
2018-11-23T09:32:38.986Z,7.2
2018-11-23T09:33:40.543Z,7.1
2018-11-23T09:34:42.348Z,7.2
2018-11-23T09:35:43.752Z,7.2
2018-11-23T09:36:45.310Z,7.2
2018-11-23T09:37:46.855Z,7.2
2018-11-23T09:38:48.080Z,7.2
2018-11-23T09:39:49.473Z,7.2
2018-11-23T09:40:51.024Z,7.2
2018-11-23T09:41:52.473Z,7.2
2018-11-23T09:42:54.250Z,7.3
2018-11-23T09:43:55.663Z,7.4
2018-11-23T09:44:57.090Z,7.4
2018-11-23T09:45:58.487Z,7.5
2018-11-23T09:46:59.888Z,7.5
2018-11-23T09:48:00.963Z,7.6
2018-11-23T09:49:02.539Z,7.7
2018-11-23T09:50:04.097Z,7.7
2018-11-23T09:51:05.348Z,7.7
2018-11-23T09:52:06.577Z,7.7
2018-11-23T09:53:07.835Z,7.7
2018-11-23T09:54:09.509Z,7.7
2018-11-23T09:55:10.907Z,7.7
2018-11-23T09:56:12.000Z,7.7
2018-11-23T09:57:13.245Z,7.7
2018-11-23T09:58:14.628Z,7.7
2018-11-23T09:59:16.020Z,7.7
2018-11-23T10:00:17.693Z,7.7
2018-11-23T10:01:19.127Z,7.6
2018-11-23T10:02:20.535Z,7.6
2018-11-23T10:03:22.101Z,7.6
2018-11-23T10:04:23.498Z,7.5
2018-11-23T10:05:25.050Z,7.5
2018-11-23T10:06:26.288Z,7.5
2018-11-23T10:07:27.699Z,7.5
2018-11-23T10:08:29.248Z,7.5
2018-11-23T10:09:30.497Z,7.5
2018-11-23T10:10:31.899Z,7.5
2018-11-23T10:11:33.299Z,7.5
2018-11-23T10:12:34.699Z,7.5
2018-11-23T10:13:36.263Z,7.6
2018-11-23T10:14:37.514Z,7.5
2018-11-23T10:15:39.070Z,7.5
2018-11-23T10:16:40.486Z,7.5
2018-11-23T10:17:42.018Z,7.4
2018-11-23T10:18:43.421Z,7.4
2018-11-23T10:19:44.808Z,7.4
2018-11-23T10:20:46.201Z,7.3
2018-11-23T10:21:47.277Z,7.3
2018-11-23T10:22:48.511Z,7.2
2018-11-23T10:23:49.948Z,7.2
2018-11-23T10:24:51.514Z,7.2
2018-11-23T10:25:53.078Z,7.2
2018-11-23T10:26:54.748Z,7.2
2018-11-23T10:27:56.294Z,7.2
2018-11-23T10:28:57.695Z,7.2
2018-11-23T10:29:59.270Z,7.2
2018-11-23T10:31:00.517Z,7.2
2018-11-23T10:32:01.918Z,7.3
2018-11-23T10:33:03.322Z,7.3
2018-11-23T10:34:04.713Z,7.4
2018-11-23T10:35:06.098Z,7.4
2018-11-23T10:36:07.725Z,7.5
2018-11-23T10:37:08.993Z,7.6
2018-11-23T10:38:10.236Z,7.7
2018-11-23T10:39:11.383Z,7.8
2018-11-23T10:40:12.459Z,7.9
2018-11-23T10:41:13.726Z,7.9
2018-11-23T10:42:15.282Z,7.9
2018-11-23T10:43:16.692Z,7.9
2018-11-23T10:44:18.086Z,7.2
2018-11-23T10:45:19.654Z,7.3
2018-11-23T10:46:21.038Z,7.3
2018-11-23T10:47:22.126Z,7.3
2018-11-23T10:48:23.382Z,7.3
2018-11-23T10:49:24.944Z,7.3
2018-11-23T10:50:26.498Z,7.3
2018-11-23T10:51:27.763Z,7.3
2018-11-23T10:52:29.174Z,7.3
2018-11-23T10:53:30.253Z,7.3
2018-11-23T10:54:31.786Z,7.3
2018-11-23T10:55:33.020Z,7.4
2018-11-23T10:56:34.577Z,7.3
2018-11-23T10:57:35.890Z,7.3
2018-11-23T10:58:37.291Z,7.2
2018-11-23T10:59:40.180Z,7.2
2018-11-23T11:00:41.758Z,7.2
2018-11-23T11:01:42.851Z,7.2
2018-11-23T11:02:44.087Z,7.2
2018-11-23T11:03:45.186Z,7.2
2018-11-23T11:04:46.419Z,7.2
2018-11-23T11:05:47.968Z,7.2
2018-11-23T11:06:49.531Z,7.2
2018-11-23T11:07:50.936Z,7.2
2018-11-23T11:08:52.334Z,7.2
2018-11-23T11:09:53.558Z,7.2
2018-11-23T11:10:54.988Z,7.2
2018-11-23T11:11:56.390Z,7.2
2018-11-23T11:12:57.968Z,7.2
2018-11-23T11:13:59.380Z,7.2
2018-11-23T11:15:00.793Z,7.2
2018-11-23T11:16:02.369Z,7.2
2018-11-23T11:17:03.448Z,7.2
2018-11-23T11:18:05.009Z,7.2
2018-11-23T11:19:06.085Z,7.2
2018-11-23T11:20:07.643Z,7.2
2018-11-23T11:21:08.713Z,7.2
2018-11-23T11:22:10.111Z,7.2
2018-11-23T11:23:11.346Z,7.3
2018-11-23T11:24:12.722Z,7.3
2018-11-23T11:25:13.956Z,7.4
2018-11-23T11:26:15.233Z,7.4
2018-11-23T11:27:16.480Z,7.5
2018-11-23T11:28:18.049Z,7.6
2018-11-23T11:29:19.431Z,7.6
2018-11-23T11:30:20.827Z,7.7
2018-11-23T11:31:22.248Z,7.8
2018-11-23T11:32:23.648Z,7.8
2018-11-23T11:33:25.065Z,7.8
2018-11-23T11:34:26.462Z,7.8
2018-11-23T11:35:27.872Z,7.8
2018-11-23T11:36:29.269Z,7.9
2018-11-23T11:37:30.709Z,7.9
2018-11-23T11:38:32.149Z,7.9
2018-11-23T11:39:33.686Z,7.9
2018-11-23T11:40:35.272Z,7.8
2018-11-23T11:41:36.692Z,7.8
2018-11-23T11:42:38.121Z,7.8
2018-11-23T11:43:39.706Z,7.8
2018-11-23T11:44:40.795Z,7.8
2018-11-23T11:45:43.319Z,7.8
2018-11-23T11:46:44.649Z,7.8
2018-11-23T11:47:45.933Z,7.8
2018-11-23T11:48:47.202Z,7.8
2018-11-23T11:49:48.609Z,7.8
2018-11-23T11:50:49.869Z,7.7
2018-11-23T11:51:51.109Z,7.7
2018-11-23T11:52:52.677Z,7.8
2018-11-23T11:53:53.927Z,7.8
2018-11-23T11:54:55.352Z,7.8
2018-11-23T11:55:56.598Z,7.8
2018-11-23T11:56:58.000Z,7.8
2018-11-23T11:57:59.399Z,7.8
2018-11-23T11:59:00.799Z,7.7
2018-11-23T12:00:02.221Z,7.7
2018-11-23T12:01:03.636Z,7.7
2018-11-23T12:02:11.549Z,7.7
2018-11-23T12:03:12.501Z,7.6
2018-11-23T12:04:13.742Z,7.6
2018-11-23T12:05:15.149Z,7.6
2018-11-23T12:06:16.557Z,7.6
2018-11-23T12:07:17.976Z,7.6
2018-11-23T12:08:19.370Z,7.6
2018-11-23T12:09:20.625Z,7.5
2018-11-23T12:10:22.158Z,7.5
2018-11-23T12:11:23.747Z,7.5
2018-11-23T12:12:25.139Z,7.5
2018-11-23T12:13:26.557Z,7.4
2018-11-23T12:14:27.975Z,7.4
2018-11-23T12:15:29.736Z,7.4
2018-11-23T12:16:31.229Z,7.4
2018-11-23T12:17:32.519Z,7.4
2018-11-23T12:18:33.812Z,7.4
2018-11-23T12:19:35.053Z,7.4
2018-11-23T12:20:36.342Z,7.4
2018-11-23T12:21:37.757Z,7.5
2018-11-23T12:22:39.139Z,7.5
2018-11-23T12:23:40.386Z,7.7
2018-11-23T12:24:41.974Z,7.8
2018-11-23T12:25:43.529Z,7.9
2018-11-23T12:26:45.768Z,7.9
2018-11-23T12:27:47.397Z,7.9
2018-11-23T12:28:48.654Z,7.3
2018-11-23T12:29:50.072Z,7.5
2018-11-23T12:30:51.480Z,7.7
2018-11-23T12:31:52.736Z,7.9
2018-11-23T12:32:54.159Z,7.9
2018-11-23T12:33:55.579Z,7.9
2018-11-23T12:34:57.015Z,7.9
2018-11-23T12:35:58.113Z,7.9
2018-11-23T12:36:59.531Z,7.9
2018-11-23T12:38:00.766Z,7.9
2018-11-23T12:39:02.022Z,7.9
2018-11-23T12:40:03.266Z,7.9
2018-11-23T12:41:04.725Z,7.8
2018-11-23T12:42:06.186Z,7.8
2018-11-23T12:43:07.543Z,7.8
2018-11-23T12:44:09.063Z,7.7
2018-11-23T12:45:10.699Z,7.7
2018-11-23T12:46:11.823Z,7.7
2018-11-23T12:47:13.392Z,7.6
2018-11-23T12:48:14.822Z,7.5
2018-11-23T12:49:16.180Z,7.4
2018-11-23T12:50:17.456Z,7.3
2018-11-23T12:51:18.772Z,7.2
2018-11-23T12:52:19.879Z,7.2
2018-11-23T12:53:21.307Z,7.2
2018-11-23T12:54:22.610Z,7.2
2018-11-23T12:55:24.192Z,7.2
2018-11-23T12:56:25.599Z,7.2
2018-11-23T12:57:27.173Z,7.2
2018-11-23T12:58:28.282Z,7.2
2018-11-23T12:59:29.691Z,7.2
2018-11-23T13:00:32.110Z,7.2
2018-11-23T13:01:33.400Z,7.2
2018-11-23T13:02:34.856Z,7.3
2018-11-23T13:03:35.960Z,7.4
2018-11-23T13:04:37.103Z,7.4
2018-11-23T13:05:38.118Z,7.5
2018-11-23T13:06:39.567Z,7.6
2018-11-23T13:07:40.741Z,7.7
2018-11-23T13:08:41.839Z,7.7
2018-11-23T13:09:43.680Z,7.8
2018-11-23T13:10:44.734Z,7.9
2018-11-23T13:11:46.316Z,7.9
2018-11-23T13:12:52.250Z,7.9
2018-11-23T13:13:53.383Z,7.9
2018-11-23T13:14:54.677Z,7.9
2018-11-23T13:15:56.127Z,7.9
2018-11-23T13:16:57.235Z,7.9
2018-11-23T13:17:58.685Z,7.9
2018-11-23T13:18:59.799Z,7.9
2018-11-23T13:20:01.379Z,7.9
2018-11-23T13:21:02.841Z,7.9
2018-11-23T13:22:04.101Z,7.9
2018-11-23T13:23:05.385Z,7.9
2018-11-23T13:24:06.836Z,7.9
2018-11-23T13:25:08.418Z,7.9
2018-11-23T13:26:10.038Z,7.9
2018-11-23T13:27:11.623Z,7.9
2018-11-23T13:28:13.243Z,7.9
2018-11-23T13:29:17.850Z,7.9
2018-11-23T13:30:19.302Z,7.9
2018-11-23T13:31:20.732Z,7.9
2018-11-23T13:32:22.254Z,7.8
2018-11-23T13:33:23.873Z,7.8
2018-11-23T13:34:25.341Z,7.8
2018-11-23T13:35:26.798Z,7.2
2018-11-23T13:36:28.238Z,7.2
2018-11-23T13:37:29.860Z,7.3
2018-11-23T13:38:30.960Z,7.3
2018-11-23T13:39:32.336Z,7.4
2018-11-23T13:40:33.784Z,7.4
2018-11-23T13:41:35.224Z,7.5
2018-11-23T13:42:36.648Z,7.6
2018-11-23T13:43:38.113Z,7.6
2018-11-23T13:44:39.577Z,7.7
2018-11-23T13:45:41.023Z,7.8
2018-11-23T13:46:42.511Z,7.8
2018-11-23T13:47:44.191Z,7.9
2018-11-23T13:48:45.998Z,7.9
2018-11-23T13:49:47.493Z,7.9
2018-11-23T13:50:48.920Z,7.9
2018-11-23T13:51:50.040Z,7.9
2018-11-23T13:52:51.182Z,7.9
2018-11-23T13:53:52.610Z,7.9
2018-11-23T13:54:53.706Z,7.9
2018-11-23T13:55:54.979Z,7.9
2018-11-23T13:56:56.728Z,7.9
2018-11-23T13:57:57.917Z,7.8
2018-11-23T13:58:59.536Z,7.8
2018-11-23T14:00:00.792Z,7.8
2018-11-23T14:01:02.064Z,7.7
2018-11-23T14:02:03.205Z,7.7
2018-11-23T14:03:04.318Z,7.5
2018-11-23T14:04:05.919Z,7.4
2018-11-23T14:05:07.516Z,7.3
2018-11-23T14:06:08.483Z,7.2